Providence Forge, Virginia
Current Conditions -  °F | °C
As of 2:35 AM on Thursday 23 Oct 2014 (Local Time) from KW96 Reporting Station
Broken Clouds Broken Clouds  
Wind Chill: 51°   Ceiling: 5500
Heat Index: 51°   Visibility: 10mi
Dew Point: 43°   Wind: 13mph
Humidity: 74%   Direction: 300°WNW
Pressure: 29.92"   Gusts: 17mph
Location:  37.44°N, 77.04°W
Report Text: KW96 230635Z AUTO 30011G15KT 10SM BKN055 10/06 A2992 RMK AO1 T01040060
Loading
Personal Weather Stations






























Interactive Weather Map
Tropical Storm Tracking
New forecast layout! Learn more

10-Day Weather Forecast

Advertisements
Track Severe Weather on mobile